createdAt,value
2017-05-08T00:00:57.444Z,8.60
2017-05-08T00:03:25.041Z,8.70
2017-05-08T00:05:52.237Z,8.70
2017-05-08T00:08:20.848Z,8.60
2017-05-08T00:10:48.104Z,8.70
2017-05-08T00:13:15.309Z,8.70
2017-05-08T00:15:42.817Z,8.70
2017-05-08T00:18:10.044Z,8.70
2017-05-08T00:20:37.247Z,8.60
2017-05-08T00:23:05.600Z,8.60
2017-05-08T00:25:33.543Z,8.60
2017-05-08T00:28:01.736Z,8.60
2017-05-08T00:30:29.312Z,8.60
2017-05-08T00:32:56.493Z,8.60
2017-05-08T00:35:23.706Z,8.50
2017-05-08T00:37:51.987Z,8.50
2017-05-08T00:40:19.949Z,8.50
2017-05-08T00:42:47.881Z,8.50
2017-05-08T00:45:16.293Z,8.50
2017-05-08T00:47:44.253Z,8.50
2017-05-08T00:50:11.439Z,8.50
2017-05-08T00:52:38.979Z,8.50
2017-05-08T00:55:06.900Z,8.50
2017-05-08T00:57:34.077Z,8.50
2017-05-08T01:00:01.577Z,8.50
2017-05-08T01:02:28.758Z,8.50
2017-05-08T01:04:55.937Z,8.40
2017-05-08T01:07:24.464Z,8.40
2017-05-08T01:09:51.652Z,8.40
2017-05-08T01:12:18.823Z,8.50
2017-05-08T01:14:46.352Z,8.50
2017-05-08T01:17:13.527Z,8.40
2017-05-08T01:19:40.723Z,8.40
2017-05-08T01:22:09.184Z,8.40
2017-05-08T01:24:37.097Z,8.40
2017-05-08T01:27:04.281Z,8.40
2017-05-08T01:29:33.293Z,8.40
2017-05-08T01:32:00.528Z,8.40
2017-05-08T01:34:28.480Z,8.40
2017-05-08T01:36:56.072Z,8.40
2017-05-08T01:39:23.275Z,8.40
2017-05-08T01:41:50.433Z,8.40
2017-05-08T01:44:18.830Z,8.40
2017-05-08T01:46:46.741Z,8.40
2017-05-08T01:49:14.845Z,8.40
2017-05-08T01:51:42.297Z,8.40
2017-05-08T01:54:10.441Z,8.30
2017-05-08T01:56:37.598Z,8.30
2017-05-08T01:59:05.086Z,8.30
2017-05-08T02:01:32.222Z,8.40
2017-05-08T02:03:59.382Z,8.40
2017-05-08T02:06:26.834Z,8.40
2017-05-08T02:08:53.983Z,8.40
2017-05-08T02:11:21.122Z,8.30
2017-05-08T02:13:48.586Z,8.30
2017-05-08T02:16:15.721Z,8.40
2017-05-08T02:18:42.879Z,8.30
2017-05-08T02:21:10.349Z,8.40
2017-05-08T02:23:37.479Z,8.40
2017-05-08T02:26:04.621Z,8.30
2017-05-08T02:28:32.094Z,8.40
2017-05-08T02:30:59.230Z,8.40
2017-05-08T02:33:26.389Z,8.30
2017-05-08T02:35:53.850Z,8.40
2017-05-08T02:38:21.009Z,8.40
2017-05-08T02:40:48.142Z,8.30
2017-05-08T02:43:16.336Z,8.30
2017-05-08T02:45:43.534Z,8.30
2017-05-08T02:48:10.695Z,8.30
2017-05-08T02:50:38.186Z,8.30
2017-05-08T02:53:05.326Z,8.30
2017-05-08T02:55:32.498Z,8.40
2017-05-08T02:58:00.761Z,8.30
2017-05-08T03:00:27.882Z,8.30
2017-05-08T03:02:55.070Z,8.30
2017-05-08T03:05:22.500Z,8.30
2017-05-08T03:07:49.625Z,8.20
2017-05-08T03:10:16.749Z,8.20
2017-05-08T03:12:44.986Z,8.20
2017-05-08T03:15:12.145Z,8.30
2017-05-08T03:17:39.280Z,8.30
2017-05-08T03:20:06.741Z,8.20
2017-05-08T03:22:33.869Z,8.30
2017-05-08T03:25:02.063Z,8.20
2017-05-08T03:27:29.526Z,8.20
2017-05-08T03:29:56.721Z,8.20
2017-05-08T03:32:23.885Z,8.20
2017-05-08T03:34:51.406Z,8.20
2017-05-08T03:37:18.541Z,8.20
2017-05-08T03:39:45.710Z,8.20
2017-05-08T03:42:14.009Z,8.20
2017-05-08T03:44:41.165Z,8.20
2017-05-08T03:47:08.313Z,8.20
2017-05-08T03:49:35.806Z,8.20
2017-05-08T03:52:05.266Z,8.20
2017-05-08T03:54:33.233Z,8.10
2017-05-08T03:57:00.746Z,8.10
2017-05-08T03:59:27.882Z,8.10
2017-05-08T04:01:55.172Z,8.10
2017-05-08T04:04:22.693Z,8.10
2017-05-08T04:06:49.866Z,8.20
2017-05-08T04:09:17.009Z,8.20
2017-05-08T04:11:44.453Z,8.20
2017-05-08T04:14:12.606Z,8.20
2017-05-08T04:16:39.745Z,8.20
2017-05-08T04:19:07.990Z,8.20
2017-05-08T04:21:35.870Z,8.10
2017-05-08T04:24:03.005Z,8.20
2017-05-08T04:26:31.194Z,8.10
2017-05-08T04:28:58.354Z,8.20
2017-05-08T04:31:25.487Z,8.20
2017-05-08T04:33:53.937Z,8.20
2017-05-08T04:36:22.618Z,8.10
2017-05-08T04:38:49.770Z,8.20
2017-05-08T04:41:17.981Z,8.20
2017-05-08T04:43:45.557Z,8.20
2017-05-08T04:46:13.980Z,8.20
2017-05-08T04:48:44.581Z,8.20
2017-05-08T04:51:11.717Z,8.20
2017-05-08T04:53:38.869Z,8.20
2017-05-08T04:56:06.286Z,8.20
2017-05-08T04:58:34.165Z,8.20
2017-05-08T05:01:01.319Z,8.20
2017-05-08T05:03:28.819Z,8.20
2017-05-08T05:05:55.958Z,8.20
2017-05-08T05:08:23.103Z,8.20
2017-05-08T05:10:50.557Z,8.20
2017-05-08T05:13:17.694Z,8.20
2017-05-08T05:15:44.833Z,8.20
2017-05-08T05:18:12.265Z,8.20
2017-05-08T05:20:40.139Z,8.20
2017-05-08T05:23:08.174Z,8.20
2017-05-08T05:25:36.442Z,8.20
2017-05-08T05:28:03.582Z,8.20
2017-05-08T05:30:30.718Z,8.20
2017-05-08T05:32:58.190Z,8.30
2017-05-08T05:35:25.403Z,8.30
2017-05-08T05:37:52.543Z,8.30
2017-05-08T05:40:20.918Z,8.20
2017-05-08T05:42:48.805Z,8.30
2017-05-08T05:45:15.978Z,8.30
2017-05-08T05:47:44.241Z,8.30
2017-05-08T05:50:11.401Z,8.30
2017-05-08T05:52:38.534Z,8.30
2017-05-08T05:55:06.026Z,8.30
2017-05-08T05:57:33.173Z,8.30
2017-05-08T06:00:00.309Z,8.30
2017-05-08T06:02:27.773Z,8.30
2017-05-08T06:04:54.909Z,8.30
2017-05-08T06:07:22.040Z,8.40
2017-05-08T06:09:50.554Z,8.40
2017-05-08T06:12:17.686Z,8.40
2017-05-08T06:14:44.830Z,8.30
2017-05-08T06:17:13.094Z,8.30
2017-05-08T06:19:40.246Z,8.30
2017-05-08T06:22:07.403Z,8.40
2017-05-08T06:24:34.877Z,8.40
2017-05-08T06:27:02.137Z,8.40
2017-05-08T06:29:29.301Z,8.40
2017-05-08T06:31:56.838Z,8.40
2017-05-08T06:34:23.971Z,8.40
2017-05-08T06:36:51.101Z,8.40
2017-05-08T06:39:18.594Z,8.40
2017-05-08T06:41:45.726Z,8.40
2017-05-08T06:44:12.878Z,8.40
2017-05-08T06:46:41.289Z,8.40
2017-05-08T06:49:08.429Z,8.40
2017-05-08T06:51:35.573Z,8.40
2017-05-08T06:54:07.564Z,8.40
2017-05-08T06:56:35.458Z,8.50
2017-05-08T06:59:02.618Z,8.40
2017-05-08T07:01:29.761Z,8.40
2017-05-08T07:03:56.902Z,8.50
2017-05-08T07:06:24.525Z,8.40
2017-05-08T07:08:51.687Z,8.50
2017-05-08T07:11:18.818Z,8.50
2017-05-08T07:13:46.365Z,8.50
2017-05-08T07:16:13.543Z,8.50
2017-05-08T07:18:41.434Z,8.50
2017-05-08T07:21:09.092Z,8.50
2017-05-08T07:23:36.473Z,8.60
2017-05-08T07:26:03.637Z,8.50
2017-05-08T07:28:31.313Z,8.50
2017-05-08T07:30:58.465Z,8.50
2017-05-08T07:33:25.606Z,8.50
2017-05-08T07:35:53.174Z,8.50
2017-05-08T07:38:20.320Z,8.50
2017-05-08T07:40:47.495Z,8.50
2017-05-08T07:43:15.738Z,8.50
2017-05-08T07:45:42.878Z,8.50
2017-05-08T07:48:10.044Z,8.50
2017-05-08T07:50:37.565Z,8.50
2017-05-08T07:53:11.157Z,8.40
2017-05-08T07:55:38.789Z,8.50
2017-05-08T07:58:08.276Z,8.50
2017-05-08T08:00:35.413Z,8.50
2017-05-08T08:03:02.867Z,8.60
2017-05-08T08:05:29.998Z,8.60
2017-05-08T08:07:57.143Z,8.70
2017-05-08T08:10:24.622Z,8.70
2017-05-08T08:12:51.772Z,8.60
2017-05-08T08:15:20.874Z,8.80
2017-05-08T08:17:48.321Z,8.80
2017-05-08T08:20:15.465Z,8.70
2017-05-08T08:22:42.605Z,8.80
2017-05-08T08:25:11.000Z,8.80
2017-05-08T08:27:38.146Z,8.70
2017-05-08T08:30:05.281Z,8.80
2017-05-08T08:32:32.750Z,8.80
2017-05-08T08:34:59.882Z,8.80
2017-05-08T08:37:27.018Z,8.80
2017-05-08T08:39:54.497Z,9.10
2017-05-08T08:42:21.634Z,8.90
2017-05-08T08:44:49.815Z,8.90
2017-05-08T08:47:17.598Z,8.80
2017-05-08T08:49:44.730Z,8.80
2017-05-08T08:52:12.861Z,8.80
2017-05-08T08:54:41.769Z,8.90
2017-05-08T08:57:08.897Z,8.90
2017-05-08T08:59:36.770Z,8.80
2017-05-08T09:02:04.281Z,8.80
2017-05-08T09:04:31.419Z,8.80
2017-05-08T09:06:58.565Z,8.80
2017-05-08T09:09:26.030Z,8.80
2017-05-08T09:11:53.165Z,8.80
2017-05-08T09:14:20.298Z,8.70
2017-05-08T09:16:47.745Z,8.70
2017-05-08T09:19:14.886Z,8.80
2017-05-08T09:21:43.039Z,8.80
2017-05-08T09:24:11.325Z,8.60
2017-05-08T09:29:19.304Z,8.60
2017-05-08T09:31:46.445Z,8.60
2017-05-08T09:34:13.631Z,8.60
2017-05-08T09:36:41.882Z,8.60
2017-05-08T09:39:09.041Z,8.60
2017-05-08T09:41:36.173Z,8.60
2017-05-08T09:44:03.624Z,8.70
2017-05-08T09:46:30.766Z,8.70
2017-05-08T09:48:57.905Z,8.80
2017-05-08T09:51:25.376Z,8.70
2017-05-08T09:53:52.514Z,8.70
2017-05-08T09:56:19.646Z,8.80
2017-05-08T09:58:47.172Z,8.90
2017-05-08T10:01:14.310Z,8.90
2017-05-08T10:03:41.668Z,8.80
2017-05-08T10:06:10.173Z,8.80
2017-05-08T10:08:38.045Z,9.00
2017-05-08T10:11:05.181Z,9.00
2017-05-08T10:13:32.700Z,9.10
2017-05-08T10:15:59.849Z,9.10
2017-05-08T10:18:26.987Z,9.10
2017-05-08T10:20:54.430Z,9.20
2017-05-08T10:23:21.582Z,9.20
2017-05-08T10:25:48.734Z,9.30
2017-05-08T10:28:16.138Z,9.30
2017-05-08T10:30:44.017Z,9.40
2017-05-08T10:33:11.175Z,9.30
2017-05-08T10:35:39.407Z,9.40
2017-05-08T10:38:06.569Z,9.40
2017-05-08T10:40:33.938Z,9.70
2017-05-08T10:43:02.390Z,9.60
2017-05-08T10:45:29.527Z,9.60
2017-05-08T10:47:56.678Z,9.50
2017-05-08T10:50:24.250Z,9.50
2017-05-08T10:52:51.374Z,9.50
2017-05-08T10:55:18.505Z,9.60
2017-05-08T10:57:45.991Z,9.70
2017-05-08T11:00:18.235Z,9.70
2017-05-08T11:02:45.414Z,9.60
2017-05-08T11:05:12.870Z,9.60
2017-05-08T11:07:40.015Z,9.80
2017-05-08T11:10:07.177Z,9.70
2017-05-08T11:12:35.559Z,9.60
2017-05-08T11:15:02.753Z,9.50
2017-05-08T11:17:29.899Z,9.70
2017-05-08T11:20:00.130Z,9.70
2017-05-08T11:22:28.358Z,9.60
2017-05-08T11:25:02.721Z,9.70
2017-05-08T11:30:36.657Z,9.50
2017-05-08T11:33:03.794Z,9.60
2017-05-08T11:35:31.251Z,9.60
2017-05-08T11:37:58.793Z,9.60
2017-05-08T11:40:25.975Z,9.80
2017-05-08T11:42:53.123Z,9.90
2017-05-08T11:45:20.710Z,9.70
2017-05-08T11:47:47.860Z,9.80
2017-05-08T11:50:15.011Z,9.90
2017-05-08T11:52:43.480Z,10.00
2017-05-08T11:55:10.627Z,10.00
2017-05-08T11:57:37.775Z,10.10
2017-05-08T12:00:05.243Z,10.00
2017-05-08T12:02:33.393Z,10.00
2017-05-08T12:05:00.521Z,10.00
2017-05-08T12:07:28.919Z,10.10
2017-05-08T12:09:56.050Z,10.00
2017-05-08T12:12:23.186Z,9.80
2017-05-08T12:14:51.415Z,9.80
2017-05-08T12:17:18.545Z,9.80
2017-05-08T12:19:45.682Z,9.70
2017-05-08T12:22:13.165Z,9.80
2017-05-08T12:24:40.331Z,9.50
2017-05-08T12:27:07.530Z,9.50
2017-05-08T12:29:35.030Z,9.30
2017-05-08T12:32:02.157Z,9.20
2017-05-08T12:34:29.292Z,9.30
2017-05-08T12:36:57.609Z,9.30
2017-05-08T12:39:24.793Z,9.20
2017-05-08T12:41:52.677Z,9.30
2017-05-08T12:44:20.174Z,9.10
2017-05-08T12:46:47.393Z,9.20
2017-05-08T12:49:14.589Z,9.00
2017-05-08T12:51:42.045Z,9.00
2017-05-08T12:54:09.190Z,8.90
2017-05-08T12:56:36.371Z,8.80
2017-05-08T12:59:05.541Z,8.80
2017-05-08T13:01:32.682Z,8.80
2017-05-08T13:03:59.813Z,8.80
2017-05-08T13:06:27.263Z,8.70
2017-05-08T13:08:54.418Z,8.70
2017-05-08T13:11:22.581Z,8.90
2017-05-08T13:13:50.057Z,8.80
2017-05-08T13:16:17.217Z,8.90
2017-05-08T13:18:44.341Z,8.90
2017-05-08T13:21:12.481Z,9.00
2017-05-08T13:23:39.638Z,9.00
2017-05-08T13:26:06.797Z,8.80
2017-05-08T13:28:34.285Z,8.80
2017-05-08T13:31:01.425Z,8.80
2017-05-08T13:33:28.812Z,8.90
2017-05-08T13:35:58.034Z,8.80
2017-05-08T13:38:25.913Z,8.90
2017-05-08T13:40:53.061Z,9.00
2017-05-08T13:43:21.389Z,8.90
2017-05-08T13:45:48.554Z,8.90
2017-05-08T13:48:15.716Z,8.90
2017-05-08T13:50:44.978Z,8.80
2017-05-08T13:53:13.121Z,8.90
2017-05-08T13:55:40.269Z,9.00
2017-05-08T13:58:08.414Z,8.90
2017-05-08T14:00:36.289Z,8.80
2017-05-08T14:03:03.433Z,8.90
2017-05-08T14:05:31.969Z,8.90
2017-05-08T14:07:59.110Z,9.00
2017-05-08T14:10:26.243Z,8.90
2017-05-08T14:12:53.725Z,8.90
2017-05-08T14:15:20.874Z,8.80
2017-05-08T14:17:48.013Z,8.80
2017-05-08T14:20:15.485Z,8.80
2017-05-08T14:22:42.621Z,8.80
2017-05-08T14:25:10.537Z,8.90
2017-05-08T14:27:37.987Z,8.70
2017-05-08T14:30:05.122Z,8.70
2017-05-08T14:32:32.257Z,8.80
2017-05-08T14:34:59.685Z,8.80
2017-05-08T14:37:26.830Z,8.80
2017-05-08T14:39:53.973Z,8.90
2017-05-08T14:42:21.454Z,8.90
2017-05-08T14:44:48.596Z,8.70
2017-05-08T14:47:16.739Z,8.80
2017-05-08T14:49:44.239Z,8.80
2017-05-08T14:52:12.404Z,8.70
2017-05-08T14:54:39.537Z,8.70
2017-05-08T14:57:06.958Z,8.70
2017-05-08T14:59:34.833Z,8.70
2017-05-08T15:02:01.985Z,8.60
2017-05-08T15:04:29.490Z,8.60
2017-05-08T15:06:56.621Z,8.50
2017-05-08T15:09:23.758Z,8.60
2017-05-08T15:11:51.236Z,8.60
2017-05-08T15:14:18.373Z,8.60
2017-05-08T15:16:46.545Z,8.70
2017-05-08T15:19:15.725Z,8.60
2017-05-08T15:21:43.074Z,8.70
2017-05-08T15:24:10.228Z,8.70
2017-05-08T15:26:37.717Z,8.50
2017-05-08T15:29:04.901Z,8.50
2017-05-08T15:31:32.036Z,8.50
2017-05-08T15:33:59.466Z,8.40
2017-05-08T15:36:26.593Z,8.30
2017-05-08T15:38:53.729Z,8.40
2017-05-08T15:41:21.229Z,8.40
2017-05-08T15:43:48.365Z,8.30
2017-05-08T15:46:15.514Z,8.40
2017-05-08T15:48:43.371Z,8.40
2017-05-08T15:51:10.549Z,8.40
2017-05-08T15:53:37.673Z,8.40
2017-05-08T15:56:07.206Z,8.40
2017-05-08T15:58:34.382Z,8.40
2017-05-08T16:01:01.538Z,8.30
2017-05-08T16:03:29.797Z,8.20
2017-05-08T16:05:56.959Z,8.20
2017-05-08T16:08:24.854Z,8.10
2017-05-08T16:10:53.249Z,8.00
2017-05-08T16:13:20.394Z,7.90
2017-05-08T16:15:47.538Z,8.00
2017-05-08T16:18:15.033Z,8.00
2017-05-08T16:20:42.186Z,8.10
2017-05-08T16:23:10.502Z,8.00
2017-05-08T16:25:38.733Z,7.90
2017-05-08T16:28:05.870Z,8.00
2017-05-08T16:30:33.013Z,7.90
2017-05-08T16:33:01.423Z,7.90
2017-05-08T16:35:28.562Z,7.90
2017-05-08T16:37:55.705Z,7.90
2017-05-08T16:40:23.992Z,7.80
2017-05-08T16:42:51.126Z,7.70
2017-05-08T16:45:18.277Z,7.70
2017-05-08T16:47:45.737Z,7.70
2017-05-08T16:50:12.886Z,7.70
2017-05-08T16:52:41.039Z,7.60
2017-05-08T16:55:08.457Z,7.60
2017-05-08T16:57:37.127Z,7.50
2017-05-08T17:00:06.657Z,7.60
2017-05-08T17:05:12.975Z,7.50
2017-05-08T17:07:40.408Z,7.50
2017-05-08T17:10:07.534Z,7.40
2017-05-08T17:12:36.062Z,7.50
2017-05-08T17:15:03.209Z,7.40
2017-05-08T17:17:31.397Z,7.40
2017-05-08T17:19:59.874Z,7.40
2017-05-08T17:22:27.010Z,7.40
2017-05-08T17:24:54.152Z,7.30
2017-05-08T17:27:21.579Z,7.30
2017-05-08T17:29:48.761Z,7.30
2017-05-08T17:32:15.908Z,7.20
2017-05-08T17:34:43.514Z,7.20
2017-05-08T17:37:11.418Z,7.20
2017-05-08T17:39:38.560Z,7.20
2017-05-08T17:42:07.090Z,7.20
2017-05-08T17:44:35.011Z,7.10
2017-05-08T17:47:02.149Z,7.20
2017-05-08T17:49:29.654Z,7.10
2017-05-08T17:51:56.809Z,7.10
2017-05-08T17:54:23.992Z,7.10
2017-05-08T17:56:51.882Z,7.10
2017-05-08T17:59:19.031Z,7.00
2017-05-08T18:01:47.401Z,7.00
2017-05-08T18:04:14.545Z,7.00
2017-05-08T18:06:43.463Z,7.00
2017-05-08T18:09:10.606Z,7.00
2017-05-08T18:11:37.766Z,7.00
2017-05-08T18:14:05.253Z,7.00
2017-05-08T18:16:32.401Z,6.90
2017-05-08T18:18:59.566Z,6.90
2017-05-08T18:21:26.705Z,6.90
2017-05-08T18:23:53.862Z,6.80
2017-05-08T18:26:21.765Z,6.80
2017-05-08T18:28:48.928Z,6.90
2017-05-08T18:31:16.077Z,6.80
2017-05-08T18:33:43.237Z,6.80
2017-05-08T18:36:11.640Z,6.80
2017-05-08T18:38:38.788Z,6.80
2017-05-08T18:41:05.970Z,6.80
2017-05-08T18:43:33.857Z,6.70
2017-05-08T18:46:01.068Z,6.80
2017-05-08T18:48:28.240Z,6.80
2017-05-08T18:50:56.121Z,6.80
2017-05-08T18:53:23.278Z,6.70
2017-05-08T18:55:53.489Z,6.60
2017-05-08T18:58:21.742Z,6.60
2017-05-08T19:00:48.882Z,6.60
2017-05-08T19:03:16.025Z,6.60
2017-05-08T19:05:43.347Z,6.50
2017-05-08T19:08:12.375Z,6.50
2017-05-08T19:10:40.563Z,6.50
2017-05-08T19:13:07.762Z,6.50
2017-05-08T19:15:35.906Z,6.50
2017-05-08T19:18:03.353Z,6.40
2017-05-08T19:20:30.530Z,6.30
2017-05-08T19:22:59.680Z,6.30
2017-05-08T19:25:27.235Z,6.30
2017-05-08T19:27:54.374Z,6.20
2017-05-08T19:30:22.750Z,6.20
2017-05-08T19:32:50.668Z,6.10
2017-05-08T19:35:17.858Z,6.10
2017-05-08T19:37:46.337Z,6.20
2017-05-08T19:40:13.554Z,6.10
2017-05-08T19:42:40.943Z,6.10
2017-05-08T19:45:09.465Z,6.10
2017-05-08T19:47:40.106Z,6.10
2017-05-08T19:50:16.199Z,6.00
2017-05-08T19:52:43.355Z,6.00
2017-05-08T19:55:10.495Z,6.00
2017-05-08T19:57:37.962Z,6.00
2017-05-08T20:00:05.101Z,5.90
2017-05-08T20:02:32.246Z,6.00
2017-05-08T20:04:59.734Z,5.90
2017-05-08T20:07:27.914Z,6.00
2017-05-08T20:09:55.061Z,5.90
2017-05-08T20:12:22.505Z,5.90
2017-05-08T20:14:49.662Z,5.90
2017-05-08T20:17:16.810Z,5.90
2017-05-08T20:19:45.151Z,5.90
2017-05-08T20:22:12.301Z,5.90
2017-05-08T20:24:42.378Z,5.90
2017-05-08T20:27:11.090Z,5.90
2017-05-08T20:29:38.374Z,5.90
2017-05-08T20:32:05.521Z,6.00
2017-05-08T20:34:33.001Z,5.90
2017-05-08T20:37:00.131Z,6.00
2017-05-08T20:39:27.289Z,6.00
2017-05-08T20:41:54.745Z,6.00
2017-05-08T20:44:21.886Z,6.00
2017-05-08T20:46:49.062Z,6.00
2017-05-08T20:49:16.602Z,6.00
2017-05-08T20:51:43.750Z,5.90
2017-05-08T20:54:10.893Z,5.90
2017-05-08T20:56:38.358Z,5.90
2017-05-08T20:59:05.507Z,5.90
2017-05-08T21:01:32.646Z,5.90
2017-05-08T21:04:01.046Z,5.90
2017-05-08T21:06:28.185Z,5.90
2017-05-08T21:08:55.353Z,5.80
2017-05-08T21:11:22.797Z,5.80
2017-05-08T21:13:49.943Z,5.70
2017-05-08T21:16:17.133Z,5.70
2017-05-08T21:18:44.655Z,5.70
2017-05-08T21:21:11.819Z,5.60
2017-05-08T21:23:39.724Z,5.60
2017-05-08T21:26:08.152Z,5.60
2017-05-08T21:28:35.286Z,5.50
2017-05-08T21:31:02.446Z,5.50
2017-05-08T21:33:29.900Z,5.50
2017-05-08T21:35:57.038Z,5.50
2017-05-08T21:38:24.181Z,5.50
2017-05-08T21:40:51.649Z,5.60
2017-05-08T21:43:18.790Z,5.60
2017-05-08T21:45:45.921Z,5.60
2017-05-08T21:48:13.406Z,5.60
2017-05-08T21:50:40.538Z,5.60
2017-05-08T21:53:09.713Z,5.50
2017-05-08T21:55:37.377Z,5.40
2017-05-08T21:58:04.565Z,5.50
2017-05-08T22:00:31.702Z,5.50
2017-05-08T22:02:59.173Z,5.40
2017-05-08T22:05:26.333Z,5.50
2017-05-08T22:07:54.229Z,5.40
2017-05-08T22:10:23.201Z,5.40
2017-05-08T22:12:50.358Z,5.40
2017-05-08T22:15:18.291Z,5.40
2017-05-08T22:17:45.761Z,5.50
2017-05-08T22:20:12.913Z,5.50
2017-05-08T22:22:40.062Z,5.50
2017-05-08T22:25:07.507Z,5.40
2017-05-08T22:27:34.645Z,5.40
2017-05-08T22:30:01.815Z,5.40
2017-05-08T22:32:30.101Z,5.40
2017-05-08T22:34:57.248Z,5.40
2017-05-08T22:37:24.402Z,5.40
2017-05-08T22:39:51.834Z,5.40
2017-05-08T22:42:18.989Z,5.30
2017-05-08T22:44:46.138Z,5.30
2017-05-08T22:47:14.613Z,5.30
2017-05-08T22:49:41.773Z,5.30
2017-05-08T22:52:08.914Z,5.30
2017-05-08T22:54:37.083Z,5.30
2017-05-08T22:57:04.242Z,5.20
2017-05-08T22:59:31.391Z,5.20
2017-05-08T23:01:58.837Z,5.30
2017-05-08T23:04:25.979Z,5.30
2017-05-08T23:06:53.118Z,5.20
2017-05-08T23:09:20.619Z,5.20
2017-05-08T23:11:48.510Z,5.20
2017-05-08T23:14:15.654Z,5.20
2017-05-08T23:16:43.897Z,5.20
2017-05-08T23:19:11.092Z,5.20
2017-05-08T23:21:38.242Z,5.20
2017-05-08T23:24:06.536Z,5.10
2017-05-08T23:26:33.905Z,5.10
2017-05-08T23:29:01.523Z,5.20
2017-05-08T23:31:29.050Z,5.20
2017-05-08T23:33:57.189Z,5.20
2017-05-08T23:36:24.325Z,5.20
2017-05-08T23:38:51.837Z,5.10
2017-05-08T23:41:18.975Z,5.10
2017-05-08T23:43:46.109Z,5.10
2017-05-08T23:46:14.382Z,5.10
2017-05-08T23:48:41.542Z,5.10
2017-05-08T23:51:08.697Z,5.20
2017-05-08T23:53:37.270Z,5.20
2017-05-08T23:56:04.433Z,5.10
2017-05-08T23:58:31.612Z,5.10
